Terminal Aerodrome Forecast
Issued by NWS Grand Forks, ND

Home | Current Version | Previous Version | Graphics & Text | Print | Product List | Glossary On
Versions: 1 2 3 4 5 6 7 8 9 10 11 12 13 14 15 16 17
704
FTUS43 KFGF 230520
TAFFAR
TAF
KFAR 230520Z 2306/2406 06007KT P6SM OVC060
     FM231500 09010KT P6SM VCSH OVC040
     FM231600 10012KT P6SM OVC035
     FM232300 11014KT P6SM OVC030=

USA.gov is the U.S. government's official web portal to all federal, state and local government web resources and services.